Time;durP1;ratioP1;P1;durP2;ratioP2;P2;SDS_P1;SDS_P2;PMS_P1;PMS_P2;Temp;Humidity;BMP_temperature;BMP_pressure;BME280_temperature;BME280_humidity;BME280_pressure;Samples;Min_cycle;Max_cycle;Signal;HPM_P1;HPM_P2
2020/12/29 00:02:23;;;;;;;3.67;3.50;;;4.70;99.90;;;;;;4991207;28;20441;-26
2020/12/29 00:04:49;;;;;;;3.60;3.40;;;4.70;99.90;;;;;;4991140;28;20436;-25
2020/12/29 00:07:16;;;;;;;3.90;3.70;;;4.70;99.90;;;;;;4995229;28;20767;-25
2020/12/29 00:09:43;;;;;;;3.83;3.60;;;4.60;99.90;;;;;;4996239;28;20472;-26
2020/12/29 00:12:10;;;;;;;4.13;3.83;;;4.60;99.90;;;;;;4995355;28;20464;-25
2020/12/29 00:14:36;;;;;;;3.67;3.43;;;4.60;99.90;;;;;;4995968;28;20440;-25
2020/12/29 00:17:03;;;;;;;3.30;3.10;;;4.70;99.90;;;;;;4996445;28;21060;-25
2020/12/29 00:19:30;;;;;;;3.23;3.03;;;4.70;99.90;;;;;;4995735;28;20499;-25
2020/12/29 00:21:58;;;;;;;3.40;3.20;;;4.80;99.90;;;;;;4995886;28;20512;-25
2020/12/29 00:24:25;;;;;;;3.63;3.43;;;4.90;99.90;;;;;;4994373;28;20563;-25
2020/12/29 00:26:52;;;;;;;2.90;2.80;;;5.10;99.90;;;;;;4993119;28;20455;-25
2020/12/29 00:29:19;;;;;;;3.37;3.07;;;5.00;99.90;;;;;;4994775;28;20729;-25
2020/12/29 00:31:45;;;;;;;3.57;3.27;;;5.00;99.90;;;;;;4998266;28;20467;-25
2020/12/29 00:34:12;;;;;;;3.13;2.93;;;5.20;99.90;;;;;;4998037;28;20446;-25
2020/12/29 00:36:39;;;;;;;3.13;2.93;;;5.20;99.90;;;;;;4998155;28;20451;-25
2020/12/29 00:39:06;;;;;;;2.90;2.70;;;5.30;99.90;;;;;;4998552;28;20441;-25
2020/12/29 00:41:32;;;;;;;2.60;2.50;;;5.30;99.90;;;;;;4996696;28;20539;-25
2020/12/29 00:44:00;;;;;;;4.00;3.33;;;5.30;99.90;;;;;;4996403;28;20444;-25
2020/12/29 00:46:27;;;;;;;2.70;2.60;;;5.30;99.90;;;;;;4996032;28;20546;-25
2020/12/29 00:48:54;;;;;;;3.00;2.90;;;5.30;99.90;;;;;;4994122;28;20780;-25
2020/12/29 00:51:22;;;;;;;3.20;3.00;;;5.30;99.90;;;;;;4994342;28;20440;-25
2020/12/29 00:53:56;;;;;;;2.83;2.73;;;5.30;99.90;;;;;;4976646;28;20854;-25
2020/12/29 00:56:23;;;;;;;3.10;2.90;;;5.20;99.90;;;;;;4995346;28;20436;-25
2020/12/29 00:58:53;;;;;;;3.67;3.40;;;5.30;99.90;;;;;;4994434;28;20466;-25
2020/12/29 01:01:24;;;;;;;3.60;3.30;;;5.30;99.90;;;;;;4993803;28;20448;-24
2020/12/29 01:04:29;;;;;;;3.60;3.40;;;5.20;99.90;;;;;;4994490;28;20550;-24
2020/12/29 01:07:02;;;;;;;2.83;2.73;;;5.20;99.90;;;;;;4994078;28;20495;-26
2020/12/29 01:09:30;;;;;;;3.50;3.30;;;5.20;99.90;;;;;;4994595;28;20465;-24
2020/12/29 01:11:57;;;;;;;3.40;3.20;;;5.20;99.90;;;;;;4994532;28;20444;-25
2020/12/29 01:14:26;;;;;;;3.00;2.80;;;5.30;99.90;;;;;;4993562;28;20479;-24
2020/12/29 01:17:07;;;;;;;3.10;2.90;;;5.30;99.90;;;;;;4993315;28;20460;-25
2020/12/29 01:19:33;;;;;;;3.93;2.77;;;5.30;99.90;;;;;;4994930;28;20460;-24
2020/12/29 01:22:01;;;;;;;3.03;2.93;;;5.30;99.90;;;;;;4994350;28;20432;-24
2020/12/29 01:24:28;;;;;;;3.00;2.90;;;5.30;99.90;;;;;;4992740;28;20496;-24
2020/12/29 01:26:56;;;;;;;2.77;2.60;;;5.40;99.90;;;;;;4993195;28;20452;-24
2020/12/29 01:29:23;;;;;;;3.00;2.80;;;5.40;99.90;;;;;;4994034;28;20457;-26
2020/12/29 01:31:50;;;;;;;2.93;2.83;;;5.50;99.90;;;;;;4994251;28;21012;-26
2020/12/29 01:34:17;;;;;;;2.73;2.63;;;5.60;99.90;;;;;;4993913;28;20475;-26
2020/12/29 01:36:44;;;;;;;2.50;2.40;;;5.60;99.90;;;;;;4994361;28;20444;-26
2020/12/29 01:39:11;;;;;;;2.60;2.50;;;5.60;99.90;;;;;;4992620;28;20452;-23
2020/12/29 01:41:38;;;;;;;3.33;3.03;;;5.60;99.90;;;;;;4994392;28;20865;-27
2020/12/29 01:44:14;;;;;;;2.77;2.67;;;5.70;99.90;;;;;;4994033;28;20519;-23
2020/12/29 01:46:43;;;;;;;2.63;2.53;;;5.80;99.90;;;;;;4992489;28;20448;-26
2020/12/29 01:49:10;;;;;;;2.50;2.40;;;5.90;99.90;;;;;;4994145;28;20776;-26
2020/12/29 01:51:39;;;;;;;2.93;2.73;;;6.00;99.90;;;;;;4993743;28;20436;-26
2020/12/29 01:54:05;;;;;;;2.17;2.17;;;6.00;99.90;;;;;;4994148;28;20846;-26
2020/12/29 01:56:36;;;;;;;2.47;2.37;;;6.00;99.90;;;;;;4993842;28;20444;-26
2020/12/29 01:59:08;;;;;;;2.53;2.27;;;6.10;99.90;;;;;;4994160;28;20923;-26
2020/12/29 02:01:38;;;;;;;2.57;2.47;;;6.10;99.90;;;;;;4994605;28;20518;-26
2020/12/29 02:04:05;;;;;;;2.60;2.50;;;6.10;99.90;;;;;;4993260;28;20437;-26
2020/12/29 02:06:32;;;;;;;2.87;2.67;;;6.10;99.90;;;;;;4994141;28;20444;-26
2020/12/29 02:09:00;;;;;;;2.23;2.20;;;6.10;99.90;;;;;;4994261;28;20472;-27
2020/12/29 02:11:27;;;;;;;2.67;2.57;;;6.10;99.90;;;;;;4993303;28;20448;-26
2020/12/29 02:13:54;;;;;;;2.50;2.40;;;6.10;99.90;;;;;;4993657;28;20448;-26
2020/12/29 02:16:20;;;;;;;2.50;2.40;;;6.10;99.90;;;;;;4992540;28;20522;-26
2020/12/29 02:18:47;;;;;;;2.83;2.73;;;6.10;99.90;;;;;;4992997;28;20472;-26
2020/12/29 02:21:14;;;;;;;2.90;2.70;;;6.10;99.90;;;;;;4994861;28;20440;-26
2020/12/29 02:23:41;;;;;;;2.60;2.50;;;6.10;99.90;;;;;;4993185;28;20436;-27
2020/12/29 02:26:08;;;;;;;2.40;2.30;;;6.10;99.90;;;;;;4992519;28;20926;-27
2020/12/29 02:28:35;;;;;;;2.57;2.47;;;6.00;99.90;;;;;;4993064;28;20507;-26
2020/12/29 02:31:02;;;;;;;2.30;2.20;;;5.90;99.90;;;;;;4993215;28;20464;-26
2020/12/29 02:33:28;;;;;;;2.40;2.40;;;5.90;99.90;;;;;;4994005;28;20953;-26
2020/12/29 02:35:55;;;;;;;2.37;2.27;;;5.90;99.90;;;;;;4995664;28;20451;-26
2020/12/29 02:38:21;;;;;;;2.37;2.23;;;5.90;99.90;;;;;;4993142;28;20441;-26
2020/12/29 02:40:50;;;;;;;2.47;2.37;;;5.90;99.90;;;;;;4992758;28;20792;-25
2020/12/29 02:43:17;;;;;;;2.53;2.40;;;6.00;99.90;;;;;;4975683;28;20921;-26
2020/12/29 02:45:44;;;;;;;2.37;2.27;;;6.00;99.90;;;;;;4992581;28;20499;-26
2020/12/29 02:48:11;;;;;;;2.23;2.17;;;6.00;99.90;;;;;;4993461;28;20458;-26
2020/12/29 02:50:44;;;;;;;2.33;2.23;;;6.00;99.90;;;;;;5130077;27;20531;-29
2020/12/29 02:53:10;;;;;;;2.20;2.10;;;6.00;99.90;;;;;;5129086;27;20447;-27
2020/12/29 02:55:37;;;;;;;1.93;1.90;;;6.10;99.90;;;;;;5129907;27;20518;-29
2020/12/29 02:58:04;;;;;;;1.87;1.87;;;6.10;99.90;;;;;;5130471;27;20473;-27
2020/12/29 03:00:30;;;;;;;1.77;1.77;;;6.10;99.90;;;;;;5130557;27;20434;-27
2020/12/29 03:02:57;;;;;;;2.20;2.20;;;6.10;99.90;;;;;;5130447;27;20446;-27
2020/12/29 03:05:23;;;;;;;2.00;2.00;;;6.10;99.90;;;;;;5130523;27;20446;-28
2020/12/29 03:07:51;;;;;;;1.90;1.90;;;6.20;99.90;;;;;;5130177;27;20438;-27
2020/12/29 03:10:18;;;;;;;2.17;2.17;;;6.30;99.90;;;;;;5129102;27;20461;-28
2020/12/29 03:12:44;;;;;;;2.13;2.00;;;6.30;99.90;;;;;;5130140;27;20450;-28
2020/12/29 03:15:11;;;;;;;2.33;2.23;;;6.30;99.90;;;;;;5129937;27;20442;-27
2020/12/29 03:17:38;;;;;;;1.90;1.90;;;6.30;99.90;;;;;;5129663;27;20423;-28
2020/12/29 03:20:06;;;;;;;2.07;1.97;;;6.30;99.90;;;;;;5129120;27;20458;-28
2020/12/29 03:22:33;;;;;;;2.23;2.20;;;6.30;99.90;;;;;;5130087;27;20430;-27
2020/12/29 03:25:01;;;;;;;2.23;2.13;;;6.30;99.90;;;;;;5129917;27;20434;-27
2020/12/29 03:27:27;;;;;;;2.50;2.40;;;6.30;99.90;;;;;;5128544;27;20442;-29
2020/12/29 03:29:54;;;;;;;2.03;1.97;;;6.40;99.90;;;;;;5129545;28;20512;-28
2020/12/29 03:32:20;;;;;;;2.00;2.00;;;6.30;99.90;;;;;;5128972;27;20914;-28
2020/12/29 03:34:47;;;;;;;1.80;1.80;;;6.30;99.90;;;;;;5129197;27;20515;-27
2020/12/29 03:37:16;;;;;;;2.10;2.00;;;6.30;99.90;;;;;;5128258;27;20434;-26
2020/12/29 03:39:43;;;;;;;2.37;2.27;;;6.40;99.90;;;;;;5129553;27;20466;-26
2020/12/29 03:42:10;;;;;;;2.03;2.00;;;6.30;99.90;;;;;;5129035;27;20498;-27
2020/12/29 03:44:37;;;;;;;2.37;2.17;;;6.40;99.90;;;;;;5128591;27;20438;-27
2020/12/29 03:47:04;;;;;;;2.17;2.07;;;6.40;99.90;;;;;;5128913;27;20434;-26
2020/12/29 03:49:30;;;;;;;1.90;1.90;;;6.40;99.90;;;;;;5127718;27;20524;-27
2020/12/29 03:51:57;;;;;;;2.20;2.20;;;6.40;99.90;;;;;;5127864;27;20503;-26
2020/12/29 03:54:23;;;;;;;2.00;1.93;;;6.30;99.90;;;;;;5128155;27;20466;-27
2020/12/29 03:56:50;;;;;;;1.67;1.67;;;6.30;99.90;;;;;;5128756;27;20434;-27
2020/12/29 03:59:17;;;;;;;2.23;2.13;;;6.20;99.90;;;;;;5127975;27;20442;-26
2020/12/29 04:01:44;;;;;;;1.90;1.90;;;6.20;99.90;;;;;;5117287;27;20430;-27
2020/12/29 04:04:10;;;;;;;1.80;1.80;;;6.10;99.90;;;;;;5115563;27;20494;-27
2020/12/29 04:06:37;;;;;;;1.97;1.97;;;6.10;99.90;;;;;;5114550;28;20450;-27
2020/12/29 04:09:04;;;;;;;1.97;1.97;;;6.10;99.90;;;;;;5114603;28;20494;-26
2020/12/29 04:11:31;;;;;;;1.93;1.90;;;6.10;99.90;;;;;;5115154;28;20591;-27
2020/12/29 04:13:58;;;;;;;2.00;1.90;;;6.10;99.90;;;;;;5114190;28;20470;-26
2020/12/29 04:16:25;;;;;;;1.90;1.80;;;6.10;99.90;;;;;;5113608;28;20435;-26
2020/12/29 04:18:52;;;;;;;2.00;1.87;;;6.10;99.90;;;;;;5112641;28;20872;-27
2020/12/29 04:21:18;;;;;;;2.00;1.90;;;6.20;99.90;;;;;;5112269;28;20438;-27
2020/12/29 04:23:45;;;;;;;2.07;1.97;;;6.10;99.90;;;;;;5114140;28;20435;-27
2020/12/29 04:26:13;;;;;;;2.03;1.93;;;6.20;99.90;;;;;;5112739;28;20442;-27
2020/12/29 04:28:40;;;;;;;2.20;2.10;;;6.20;99.90;;;;;;5114371;28;20469;-27
2020/12/29 04:31:10;;;;;;;2.67;1.87;;;6.10;99.90;;;;;;5112806;28;20443;-27
2020/12/29 04:33:38;;;;;;;1.87;1.80;;;6.10;99.90;;;;;;5112264;28;20478;-27
2020/12/29 04:36:05;;;;;;;2.30;2.13;;;6.10;99.90;;;;;;5112633;28;20444;-27
2020/12/29 04:38:31;;;;;;;1.77;1.77;;;6.10;99.90;;;;;;5114116;28;20435;-27
2020/12/29 04:40:58;;;;;;;2.17;2.07;;;6.10;99.90;;;;;;5113742;28;20496;-26
2020/12/29 04:43:26;;;;;;;2.00;1.90;;;6.10;99.90;;;;;;5114046;28;20542;-26
2020/12/29 04:45:58;;;;;;;1.70;1.70;;;6.10;99.90;;;;;;5112776;28;20786;-28
2020/12/29 04:48:26;;;;;;;1.87;1.80;;;6.10;99.90;;;;;;5113145;28;20431;-27
2020/12/29 04:51:01;;;;;;;3.30;2.27;;;6.10;99.90;;;;;;5113615;28;20435;-27
2020/12/29 04:53:31;;;;;;;2.10;2.00;;;6.10;99.90;;;;;;5113718;28;20503;-27
2020/12/29 04:56:03;;;;;;;2.20;1.97;;;6.10;99.90;;;;;;5114155;28;20458;-26
2020/12/29 04:58:32;;;;;;;2.10;2.00;;;6.10;99.90;;;;;;5112736;28;20439;-26
2020/12/29 05:01:04;;;;;;;2.27;2.17;;;6.20;99.90;;;;;;5112660;28;20767;-27
2020/12/29 05:03:42;;;;;;;5.07;2.10;;;6.20;99.90;;;;;;5112473;28;20449;-27
2020/12/29 05:06:10;;;;;;;2.03;1.93;;;6.30;99.90;;;;;;5112599;28;20788;-26
2020/12/29 05:08:37;;;;;;;2.33;2.23;;;6.30;99.90;;;;;;5112561;28;20549;-27
2020/12/29 05:11:03;;;;;;;2.30;2.20;;;6.30;99.90;;;;;;5112503;28;20435;-27
2020/12/29 05:13:30;;;;;;;2.40;2.20;;;6.40;99.90;;;;;;5111191;28;20851;-26
2020/12/29 05:15:56;;;;;;;2.03;2.03;;;6.40;99.90;;;;;;5112137;28;20446;-27
2020/12/29 05:18:25;;;;;;;2.00;1.97;;;6.40;99.90;;;;;;5112931;28;20443;-27
2020/12/29 05:20:53;;;;;;;1.90;1.90;;;6.30;99.90;;;;;;5112167;28;20427;-26
2020/12/29 05:23:21;;;;;;;2.20;2.10;;;6.40;99.90;;;;;;5112801;28;21148;-27
2020/12/29 05:25:48;;;;;;;2.23;2.10;;;6.40;99.90;;;;;;5111204;28;20740;-28
2020/12/29 05:28:15;;;;;;;2.40;2.20;;;6.40;99.90;;;;;;5109697;28;20584;-27
2020/12/29 05:30:41;;;;;;;2.60;2.50;;;6.30;99.90;;;;;;5111705;28;20478;-27
2020/12/29 05:33:12;;;;;;;2.70;2.50;;;6.30;99.90;;;;;;5110625;28;20431;-26
2020/12/29 05:35:39;;;;;;;2.07;1.93;;;6.30;99.90;;;;;;5111928;28;20443;-27
2020/12/29 05:38:07;;;;;;;1.97;1.97;;;6.20;99.90;;;;;;5113197;28;20710;-27
2020/12/29 05:40:35;;;;;;;2.37;2.27;;;6.10;99.90;;;;;;5112489;28;20439;-27
2020/12/29 05:43:02;;;;;;;2.20;2.00;;;6.10;99.90;;;;;;5111908;28;20450;-27
2020/12/29 05:45:30;;;;;;;2.33;2.10;;;6.10;99.90;;;;;;5111979;28;20494;-28
2020/12/29 05:47:58;;;;;;;2.13;2.00;;;6.10;99.90;;;;;;5111900;28;20477;-27
2020/12/29 05:50:26;;;;;;;2.33;2.33;;;6.10;99.90;;;;;;5111233;28;20662;-26
2020/12/29 05:52:54;;;;;;;2.50;2.27;;;6.10;99.90;;;;;;5111106;28;21064;-27
2020/12/29 05:55:23;;;;;;;1.80;1.70;;;6.10;99.90;;;;;;5111034;28;20722;-27
2020/12/29 05:58:05;;;;;;;1.80;1.80;;;6.10;99.90;;;;;;5111289;28;20431;-27
2020/12/29 06:00:32;;;;;;;2.30;2.10;;;6.10;99.90;;;;;;5111137;28;20435;-27
2020/12/29 06:03:01;;;;;;;1.83;1.70;;;6.10;99.90;;;;;;5108896;28;20430;-27
2020/12/29 06:05:29;;;;;;;2.10;2.00;;;6.10;99.90;;;;;;5107147;28;20479;-26
2020/12/29 06:07:57;;;;;;;1.60;1.60;;;6.10;99.90;;;;;;5109357;28;20538;-27
2020/12/29 06:10:24;;;;;;;1.97;1.97;;;6.10;99.90;;;;;;5109338;28;20470;-26
2020/12/29 06:12:53;;;;;;;4.40;1.90;;;6.10;99.90;;;;;;5110497;28;20431;-26
2020/12/29 06:15:29;;;;;;;2.17;1.93;;;6.20;99.90;;;;;;5110505;28;20443;-27
2020/12/29 06:17:57;;;;;;;2.10;2.00;;;6.20;99.90;;;;;;5109055;28;20741;-27
2020/12/29 06:20:30;;;;;;;2.90;2.70;;;6.10;99.90;;;;;;5110033;28;20509;-27
2020/12/29 06:23:00;;;;;;;2.90;2.70;;;6.10;99.90;;;;;;5110474;28;20465;-27
2020/12/29 06:25:32;;;;;;;3.00;2.80;;;6.20;99.90;;;;;;5109039;28;20446;-26
2020/12/29 06:28:00;;;;;;;3.17;3.07;;;6.20;99.90;;;;;;5108062;28;20889;-26
2020/12/29 06:30:28;;;;;;;3.90;3.50;;;6.10;99.90;;;;;;5107020;28;20470;-27
2020/12/29 06:32:55;;;;;;;4.13;3.83;;;6.10;99.90;;;;;;5106512;28;20435;-26
2020/12/29 06:35:23;;;;;;;4.87;3.00;;;6.00;99.90;;;;;;5108792;28;20984;-27
2020/12/29 06:37:56;;;;;;;4.07;3.50;;;6.00;99.90;;;;;;5107669;28;20442;-26
2020/12/29 06:40:23;;;;;;;2.30;2.20;;;6.00;99.90;;;;;;5106291;28;20470;-27
2020/12/29 06:42:50;;;;;;;2.47;2.27;;;5.90;99.90;;;;;;5108615;28;20901;-27
2020/12/29 06:45:18;;;;;;;2.97;2.77;;;6.00;99.90;;;;;;5106716;28;21037;-27
2020/12/29 06:47:46;;;;;;;4.03;2.20;;;5.90;99.90;;;;;;5105817;28;21166;-27
2020/12/29 06:50:22;;;;;;;2.00;1.90;;;5.90;99.90;;;;;;5104934;28;20500;-27
2020/12/29 06:52:54;;;;;;;4.10;3.73;;;5.80;99.90;;;;;;5105843;28;20448;-27
2020/12/29 06:55:21;;;;;;;2.50;2.40;;;5.80;99.90;;;;;;5104013;28;20457;-27
2020/12/29 06:57:49;;;;;;;2.07;1.97;;;5.80;99.90;;;;;;5103371;28;20443;-27
2020/12/29 07:00:17;;;;;;;2.47;2.37;;;5.90;99.90;;;;;;5099305;28;20492;-27
2020/12/29 07:02:47;;;;;;;2.60;2.37;;;6.00;99.90;;;;;;5103041;28;20791;-27
2020/12/29 07:05:15;;;;;;;2.30;2.20;;;6.00;99.90;;;;;;5099672;28;20473;-27
2020/12/29 07:07:56;;;;;;;2.17;2.07;;;5.90;99.90;;;;;;5101407;28;20443;-27
2020/12/29 07:10:26;;;;;;;2.10;2.00;;;5.90;99.90;;;;;;5102459;28;21218;-26
2020/12/29 07:12:52;;;;;;;2.53;2.43;;;5.90;99.90;;;;;;5100379;28;20446;-27
2020/12/29 07:15:21;;;;;;;4.23;3.87;;;5.80;99.90;;;;;;5099895;28;20920;-26
2020/12/29 07:17:57;;;;;;;3.03;2.83;;;5.70;99.90;;;;;;5097720;28;20439;-27
2020/12/29 07:20:24;;;;;;;3.53;2.03;;;5.70;99.90;;;;;;5101195;28;21258;-27
2020/12/29 07:22:56;;;;;;;5.30;4.80;;;5.80;99.90;;;;;;5101084;28;20431;-26
2020/12/29 07:25:24;;;;;;;12.07;5.90;;;5.80;99.90;;;;;;5099451;28;20565;-26
2020/12/29 07:27:55;;;;;;;5.00;4.50;;;5.80;99.90;;;;;;5101451;28;20457;-27
2020/12/29 07:30:21;;;;;;;2.20;2.00;;;5.80;99.90;;;;;;5099518;28;20454;-27
2020/12/29 07:32:49;;;;;;;3.20;2.93;;;5.70;99.90;;;;;;5100686;28;20443;-26
2020/12/29 07:35:19;;;;;;;3.80;3.60;;;5.70;99.90;;;;;;5098727;28;20519;-28
2020/12/29 07:37:50;;;;;;;2.53;2.43;;;5.80;99.90;;;;;;5102783;28;20732;-28
2020/12/29 07:40:17;;;;;;;2.40;2.30;;;5.80;99.90;;;;;;5106636;28;20431;-27
2020/12/29 07:42:43;;;;;;;2.10;2.00;;;5.90;99.90;;;;;;5105968;28;20785;-27
2020/12/29 07:45:11;;;;;;;1.93;1.83;;;6.00;99.90;;;;;;5103265;28;20817;-27
2020/12/29 07:47:37;;;;;;;1.90;1.90;;;5.90;99.90;;;;;;5104257;28;20441;-27
2020/12/29 07:50:04;;;;;;;6.90;2.90;;;5.90;99.90;;;;;;5102721;28;20795;-27
2020/12/29 07:52:32;;;;;;;2.90;2.33;;;5.90;99.90;;;;;;5104165;28;20446;-33
2020/12/29 07:55:05;;;;;;;2.47;2.07;;;5.90;99.90;;;;;;5104148;28;20526;-27
2020/12/29 07:57:33;;;;;;;2.03;2.03;;;5.90;99.90;;;;;;5103832;28;20474;-31
2020/12/29 08:00:14;;;;;;;4.93;2.10;;;5.90;99.90;;;;;;5105165;28;20439;-31
2020/12/29 08:02:48;;;;;;;1.77;1.67;;;5.90;99.90;;;;;;5099018;28;20434;-32
2020/12/29 08:05:15;;;;;;;1.50;1.50;;;5.90;99.90;;;;;;5102280;28;20466;-28
2020/12/29 08:07:43;;;;;;;1.77;1.70;;;5.90;99.90;;;;;;5102001;28;20444;-27
2020/12/29 08:10:09;;;;;;;2.13;1.93;;;5.90;99.90;;;;;;5103295;28;20503;-28
2020/12/29 08:12:36;;;;;;;2.73;2.30;;;6.00;99.90;;;;;;5100936;28;20534;-29
2020/12/29 08:15:03;;;;;;;2.20;2.00;;;5.90;99.90;;;;;;5101508;28;20470;-27
2020/12/29 08:17:30;;;;;;;1.83;1.73;;;6.00;99.90;;;;;;5099851;28;20438;-27
2020/12/29 08:19:58;;;;;;;3.47;2.20;;;6.00;99.90;;;;;;5099497;28;20482;-28
2020/12/29 08:22:29;;;;;;;2.00;1.90;;;6.10;99.90;;;;;;5100344;28;20558;-26
2020/12/29 08:24:57;;;;;;;1.90;1.80;;;6.00;99.90;;;;;;5097735;28;20542;-26
2020/12/29 08:27:24;;;;;;;2.20;2.00;;;6.00;99.90;;;;;;5099423;27;20435;-27
2020/12/29 08:29:51;;;;;;;1.70;1.70;;;6.10;99.90;;;;;;5098663;28;20466;-26
2020/12/29 08:32:22;;;;;;;2.50;1.80;;;6.20;99.90;;;;;;5098913;28;20439;-27
2020/12/29 08:34:49;;;;;;;1.73;1.70;;;6.30;99.90;;;;;;5101504;28;20935;-27
2020/12/29 08:37:23;;;;;;;2.30;2.00;;;6.30;99.90;;;;;;5100686;28;21156;-26
2020/12/29 08:40:05;;;;;;;2.40;1.80;;;6.30;99.90;;;;;;5098674;27;20563;-27
2020/12/29 08:42:35;;;;;;;2.20;2.10;;;6.40;99.90;;;;;;5099969;28;20485;-26
2020/12/29 08:45:07;;;;;;;2.70;2.10;;;6.40;99.90;;;;;;5100797;28;20508;-27
2020/12/29 08:47:34;;;;;;;4.93;2.10;;;6.50;99.90;;;;;;5100545;28;20431;-25
2020/12/29 08:50:20;;;;;;;1.83;1.70;;;6.60;99.90;;;;;;5103466;28;20585;-26
2020/12/29 08:52:53;;;;;;;2.30;2.20;;;6.70;99.90;;;;;;5100786;28;20446;-26
2020/12/29 08:55:28;;;;;;;2.37;2.30;;;6.80;99.90;;;;;;5099804;27;20447;-26
2020/12/29 08:57:56;;;;;;;1.90;1.80;;;6.90;99.90;;;;;;5098221;28;20431;-27
2020/12/29 09:00:23;;;;;;;1.80;1.70;;;6.90;99.90;;;;;;5098949;28;20453;-26
2020/12/29 09:02:50;;;;;;;2.20;2.00;;;7.00;99.90;;;;;;5098901;28;20431;-27
2020/12/29 09:05:24;;;;;;;2.10;1.90;;;6.90;99.90;;;;;;5100737;28;21119;-26
2020/12/29 09:07:52;;;;;;;1.90;1.90;;;7.00;99.90;;;;;;5099911;28;20442;-27
2020/12/29 09:10:19;;;;;;;2.30;2.20;;;7.00;99.90;;;;;;5098989;28;20466;-27
2020/12/29 09:12:48;;;;;;;1.97;1.87;;;7.00;99.90;;;;;;5100829;28;20468;-26
2020/12/29 09:15:24;;;;;;;2.10;2.00;;;6.90;99.90;;;;;;5097791;28;20446;-26
2020/12/29 09:17:56;;;;;;;2.73;1.70;;;6.80;99.90;;;;;;5099977;28;20455;-26
2020/12/29 09:20:25;;;;;;;1.90;1.80;;;6.70;99.90;;;;;;5090133;28;20471;-27
2020/12/29 09:22:55;;;;;;;3.80;2.87;;;6.70;99.90;;;;;;5087878;28;20594;-26
2020/12/29 09:25:29;;;;;;;3.93;3.63;;;6.80;99.90;;;;;;5086157;28;20538;-31
2020/12/29 09:28:17;;;;;;;2.80;2.60;;;6.80;99.90;;;;;;5083538;28;20467;-28
2020/12/29 09:30:45;;;;;;;7.27;6.40;;;6.90;99.90;;;;;;5083570;28;20475;-27
2020/12/29 09:33:19;;;;;;;7.70;7.13;;;6.90;99.90;;;;;;5081954;28;20473;-29
2020/12/29 09:35:45;;;;;;;3.13;2.80;;;6.90;99.90;;;;;;5084000;28;20483;-28
2020/12/29 09:38:14;;;;;;;14.43;3.60;;;6.90;99.90;;;;;;5088058;28;21164;-28
2020/12/29 09:40:41;;;;;;;2.67;2.47;;;6.90;99.90;;;;;;5083675;28;20452;-31
2020/12/29 09:43:07;;;;;;;2.47;2.37;;;6.90;99.90;;;;;;5087482;28;20567;-28
2020/12/29 09:45:35;;;;;;;3.17;2.50;;;7.00;99.90;;;;;;5087940;28;20446;-30
2020/12/29 09:48:02;;;;;;;2.20;2.10;;;7.00;99.90;;;;;;5088314;28;20442;-28
2020/12/29 09:50:28;;;;;;;1.80;1.70;;;7.00;99.90;;;;;;5097531;28;20478;-28
2020/12/29 09:52:55;;;;;;;1.80;1.70;;;6.90;99.90;;;;;;5098621;28;20430;-27
2020/12/29 09:55:22;;;;;;;2.20;2.10;;;6.90;99.90;;;;;;5099403;28;20450;-28
2020/12/29 09:57:48;;;;;;;2.00;1.90;;;6.90;99.90;;;;;;5085353;28;20439;-28
2020/12/29 10:00:15;;;;;;;3.60;1.93;;;6.80;99.90;;;;;;5079869;28;20794;-28
2020/12/29 10:02:42;;;;;;;1.80;1.70;;;6.80;99.90;;;;;;5041434;28;20455;-28
2020/12/29 10:05:09;;;;;;;2.20;2.10;;;6.80;99.90;;;;;;5037604;28;20544;-27
2020/12/29 10:07:41;;;;;;;1.90;1.80;;;6.70;99.90;;;;;;5078349;28;20428;-29
2020/12/29 10:10:07;;;;;;;2.73;1.83;;;6.70;99.90;;;;;;5060369;28;20848;-28
2020/12/29 10:12:34;;;;;;;1.83;1.67;;;6.60;99.90;;;;;;5059586;28;20772;-29
2020/12/29 10:15:01;;;;;;;3.83;1.80;;;6.60;99.90;;;;;;5078729;28;20444;-30
2020/12/29 10:17:27;;;;;;;2.03;1.93;;;6.30;99.90;;;;;;5078591;28;20443;-28
2020/12/29 10:19:56;;;;;;;2.43;2.37;;;6.00;99.90;;;;;;5082752;28;20467;-28
2020/12/29 10:22:22;;;;;;;3.13;2.33;;;5.70;99.90;;;;;;5094828;28;21151;-28
2020/12/29 10:24:49;;;;;;;2.70;2.60;;;5.60;99.90;;;;;;5095650;28;20880;-28
2020/12/29 10:27:16;;;;;;;5.90;2.70;;;5.40;99.90;;;;;;5096341;28;20458;-28
2020/12/29 10:29:42;;;;;;;2.63;2.00;;;5.40;99.90;;;;;;5091123;28;20463;-29
2020/12/29 10:32:09;;;;;;;5.37;3.40;;;5.50;99.90;;;;;;5088386;28;20584;-28
2020/12/29 10:34:36;;;;;;;1.80;1.70;;;5.60;99.90;;;;;;5089401;28;20511;-29
2020/12/29 10:37:03;;;;;;;2.07;1.83;;;5.60;99.90;;;;;;5091051;28;20582;-28
2020/12/29 10:39:30;;;;;;;2.53;1.50;;;5.70;99.90;;;;;;5092513;28;20695;-28
2020/12/29 10:41:56;;;;;;;2.20;2.00;;;5.80;99.90;;;;;;5089413;28;20468;-28
2020/12/29 10:44:23;;;;;;;2.13;1.80;;;5.90;99.90;;;;;;5087472;28;20776;-28
2020/12/29 10:46:49;;;;;;;1.90;1.80;;;5.80;99.90;;;;;;5088081;28;20634;-28
2020/12/29 10:49:16;;;;;;;1.53;1.53;;;5.80;99.90;;;;;;5086403;28;20479;-29
2020/12/29 10:51:42;;;;;;;2.27;2.03;;;5.90;99.90;;;;;;5087797;28;20450;-28
2020/12/29 10:54:10;;;;;;;2.17;1.80;;;6.00;99.90;;;;;;5090488;28;20431;-28
2020/12/29 10:56:36;;;;;;;1.80;1.70;;;6.10;99.90;;;;;;5087019;28;20477;-28
2020/12/29 10:59:03;;;;;;;1.37;1.37;;;6.10;99.90;;;;;;5086574;28;20450;-28
2020/12/29 11:01:29;;;;;;;1.60;1.60;;;6.10;99.90;;;;;;5086464;28;20542;-28
2020/12/29 11:03:56;;;;;;;1.40;1.30;;;6.00;99.90;;;;;;5088577;28;20610;-28
2020/12/29 11:06:23;;;;;;;1.90;1.80;;;5.90;99.90;;;;;;5089623;28;20435;-28
2020/12/29 11:08:51;;;;;;;2.07;1.97;;;5.80;99.90;;;;;;5085234;28;20431;-28
2020/12/29 11:11:20;;;;;;;1.50;1.50;;;6.00;99.90;;;;;;5082583;28;20535;-30
2020/12/29 11:13:47;;;;;;;1.40;1.37;;;6.00;99.90;;;;;;5086905;28;20738;-28
2020/12/29 11:16:15;;;;;;;1.70;1.70;;;6.00;99.90;;;;;;5094836;28;20440;-28
2020/12/29 11:18:42;;;;;;;2.20;2.07;;;6.10;99.90;;;;;;5094813;28;20670;-29
2020/12/29 11:21:09;;;;;;;2.23;2.13;;;6.30;99.90;;;;;;5093099;28;20447;-28
2020/12/29 11:23:35;;;;;;;1.97;1.87;;;6.50;99.90;;;;;;5091632;28;20523;-28
2020/12/29 11:26:02;;;;;;;1.93;1.83;;;6.40;99.90;;;;;;5092731;28;20462;-27
2020/12/29 11:28:29;;;;;;;1.60;1.60;;;6.60;99.90;;;;;;5093971;28;20646;-29
2020/12/29 11:30:56;;;;;;;1.50;1.50;;;6.70;99.90;;;;;;5090875;28;20687;-29
2020/12/29 11:33:23;;;;;;;1.80;1.80;;;6.70;99.90;;;;;;5088530;28;20599;-28
2020/12/29 11:35:49;;;;;;;1.90;1.87;;;6.80;99.90;;;;;;5091702;27;20751;-29
2020/12/29 11:38:17;;;;;;;2.17;2.00;;;6.80;99.90;;;;;;5092481;28;20736;-28
2020/12/29 11:40:45;;;;;;;1.80;1.70;;;7.00;99.90;;;;;;5095170;28;20801;-28
2020/12/29 11:43:12;;;;;;;1.70;1.60;;;7.00;99.90;;;;;;5092848;28;20886;-28
2020/12/29 11:45:40;;;;;;;1.93;1.83;;;6.80;99.90;;;;;;5092131;27;20701;-28
2020/12/29 11:48:06;;;;;;;1.90;1.90;;;6.90;99.90;;;;;;5088815;28;20534;-28
2020/12/29 11:50:33;;;;;;;2.73;2.03;;;6.80;99.90;;;;;;5094014;28;20474;-29
2020/12/29 11:53:00;;;;;;;2.30;2.20;;;6.60;99.90;;;;;;5089737;28;20872;-28
2020/12/29 11:55:26;;;;;;;2.03;1.93;;;6.30;99.90;;;;;;5094163;28;20739;-30
2020/12/29 11:57:53;;;;;;;2.27;2.17;;;6.10;99.90;;;;;;5094622;28;20755;-29
2020/12/29 12:00:19;;;;;;;2.50;2.40;;;6.00;99.90;;;;;;5089281;28;20443;-28
2020/12/29 12:02:47;;;;;;;3.80;3.60;;;6.00;99.90;;;;;;5089291;28;20694;-27
2020/12/29 12:05:13;;;;;;;2.00;1.90;;;6.10;99.90;;;;;;5090479;28;20546;-28
2020/12/29 12:07:40;;;;;;;3.60;3.37;;;6.20;99.90;;;;;;5093579;28;20459;-27
2020/12/29 12:10:08;;;;;;;4.70;4.40;;;6.40;99.90;;;;;;5095978;28;20463;-28
2020/12/29 12:12:35;;;;;;;3.00;2.63;;;6.50;99.90;;;;;;5091790;28;20778;-28
2020/12/29 12:15:03;;;;;;;4.50;2.80;;;6.50;99.90;;;;;;5094422;28;20443;-27
2020/12/29 12:17:30;;;;;;;3.43;3.20;;;6.50;99.90;;;;;;5092567;28;20438;-29
2020/12/29 12:19:57;;;;;;;8.37;7.77;;;6.60;99.90;;;;;;5095994;28;20439;-27
2020/12/29 12:22:24;;;;;;;10.03;9.07;;;6.40;99.90;;;;;;5096464;28;20503;-28
2020/12/29 12:24:50;;;;;;;5.63;5.23;;;6.30;99.90;;;;;;5094209;28;20439;-27
2020/12/29 12:27:17;;;;;;;10.43;7.40;;;6.30;99.90;;;;;;5096100;28;20469;-28
2020/12/29 12:29:44;;;;;;;6.50;5.87;;;6.30;99.90;;;;;;5095829;28;20633;-27
2020/12/29 12:32:10;;;;;;;7.30;5.20;;;6.20;99.90;;;;;;5094817;28;20918;-28
2020/12/29 12:34:37;;;;;;;7.70;6.53;;;6.20;99.90;;;;;;5095380;28;20563;-28
2020/12/29 12:37:05;;;;;;;3.50;3.30;;;6.40;99.90;;;;;;5092757;28;20442;-28
2020/12/29 12:39:31;;;;;;;9.10;8.20;;;6.50;99.90;;;;;;5096411;27;20451;-28
2020/12/29 12:41:58;;;;;;;2.23;2.10;;;6.40;99.90;;;;;;5091917;28;20458;-27
2020/12/29 12:44:25;;;;;;;2.63;2.43;;;6.30;99.90;;;;;;5091866;28;20629;-28
2020/12/29 12:46:51;;;;;;;2.30;2.10;;;6.30;99.90;;;;;;5092953;28;20446;-28
2020/12/29 12:49:18;;;;;;;2.60;2.40;;;6.30;99.90;;;;;;5096309;28;20475;-28
2020/12/29 12:51:47;;;;;;;1.83;1.83;;;6.30;99.90;;;;;;5094159;28;20466;-28
2020/12/29 12:54:14;;;;;;;2.17;1.90;;;6.20;99.90;;;;;;5093207;28;20934;-28
2020/12/29 12:56:45;;;;;;;2.50;2.40;;;6.10;99.90;;;;;;5094939;27;20847;-28
2020/12/29 12:59:12;;;;;;;1.97;1.87;;;6.20;99.90;;;;;;5092794;28;20715;-28
2020/12/29 13:01:39;;;;;;;2.00;1.90;;;6.30;99.90;;;;;;5091594;28;20947;-27
2020/12/29 13:04:08;;;;;;;2.40;2.30;;;6.30;99.90;;;;;;5093840;28;20594;-28